sensor_id;sensor_type;location;lat;lon;timestamp;P1;durP1;ratioP1;P2;durP2;ratioP2
33357;SDS011;19717;42.614;23.418;2023-02-11T00:01:04;3.25;;;1.55;;
33357;SDS011;19717;42.614;23.418;2023-02-11T00:03:30;3.72;;;2.90;;
33357;SDS011;19717;42.614;23.418;2023-02-11T00:05:57;0.90;;;0.90;;
33357;SDS011;19717;42.614;23.418;2023-02-11T00:08:23;1.20;;;1.13;;
33357;SDS011;19717;42.614;23.418;2023-02-11T00:10:53;2.95;;;1.15;;
33357;SDS011;19717;42.614;23.418;2023-02-11T00:13:20;0.98;;;0.82;;
33357;SDS011;19717;42.614;23.418;2023-02-11T00:15:46;2.22;;;1.98;;
33357;SDS011;19717;42.614;23.418;2023-02-11T00:18:12;0.70;;;0.70;;
33357;SDS011;19717;42.614;23.418;2023-02-11T00:20:39;8.43;;;2.17;;
33357;SDS011;19717;42.614;23.418;2023-02-11T00:23:05;1.15;;;1.10;;
33357;SDS011;19717;42.614;23.418;2023-02-11T00:25:31;1.43;;;1.33;;
33357;SDS011;19717;42.614;23.418;2023-02-11T00:27:57;5.30;;;2.17;;
33357;SDS011;19717;42.614;23.418;2023-02-11T00:30:23;2.65;;;1.42;;
33357;SDS011;19717;42.614;23.418;2023-02-11T00:32:49;3.05;;;1.65;;
33357;SDS011;19717;42.614;23.418;2023-02-11T00:35:15;0.52;;;0.52;;
33357;SDS011;19717;42.614;23.418;2023-02-11T00:37:41;0.60;;;0.60;;
33357;SDS011;19717;42.614;23.418;2023-02-11T00:40:07;2.30;;;2.00;;
33357;SDS011;19717;42.614;23.418;2023-02-11T00:42:34;1.55;;;0.88;;
33357;SDS011;19717;42.614;23.418;2023-02-11T00:45:00;4.70;;;1.15;;
33357;SDS011;19717;42.614;23.418;2023-02-11T00:47:26;3.40;;;2.47;;
33357;SDS011;19717;42.614;23.418;2023-02-11T00:49:52;2.45;;;1.45;;
33357;SDS011;19717;42.614;23.418;2023-02-11T00:52:18;9.50;;;3.95;;
33357;SDS011;19717;42.614;23.418;2023-02-11T00:54:44;12.65;;;3.33;;
33357;SDS011;19717;42.614;23.418;2023-02-11T00:57:10;1.67;;;1.58;;
33357;SDS011;19717;42.614;23.418;2023-02-11T00:59:36;2.70;;;0.98;;
33357;SDS011;19717;42.614;23.418;2023-02-11T01:02:02;1.35;;;0.63;;
33357;SDS011;19717;42.614;23.418;2023-02-11T01:04:28;2.78;;;2.50;;
33357;SDS011;19717;42.614;23.418;2023-02-11T01:06:54;4.28;;;2.47;;
33357;SDS011;19717;42.614;23.418;2023-02-11T01:09:20;1.60;;;1.52;;
33357;SDS011;19717;42.614;23.418;2023-02-11T01:11:46;2.55;;;2.35;;
33357;SDS011;19717;42.614;23.418;2023-02-11T01:14:13;3.03;;;2.10;;
33357;SDS011;19717;42.614;23.418;2023-02-11T01:16:39;2.33;;;2.20;;
33357;SDS011;19717;42.614;23.418;2023-02-11T01:19:05;3.22;;;2.92;;
33357;SDS011;19717;42.614;23.418;2023-02-11T01:21:31;1.80;;;1.30;;
33357;SDS011;19717;42.614;23.418;2023-02-11T01:23:57;1.80;;;1.33;;
33357;SDS011;19717;42.614;23.418;2023-02-11T01:26:23;5.78;;;2.35;;
33357;SDS011;19717;42.614;23.418;2023-02-11T01:28:49;7.72;;;3.53;;
33357;SDS011;19717;42.614;23.418;2023-02-11T01:31:15;8.95;;;2.05;;
33357;SDS011;19717;42.614;23.418;2023-02-11T01:33:42;0.88;;;0.70;;
33357;SDS011;19717;42.614;23.418;2023-02-11T01:36:08;2.38;;;2.08;;
33357;SDS011;19717;42.614;23.418;2023-02-11T01:38:35;0.88;;;0.88;;
33357;SDS011;19717;42.614;23.418;2023-02-11T01:41:03;1.15;;;1.15;;
33357;SDS011;19717;42.614;23.418;2023-02-11T01:43:36;2.08;;;1.98;;
33357;SDS011;19717;42.614;23.418;2023-02-11T01:48:48;1.65;;;1.55;;
33357;SDS011;19717;42.614;23.418;2023-02-11T01:51:17;1.23;;;1.17;;
33357;SDS011;19717;42.614;23.418;2023-02-11T01:53:45;1.50;;;1.42;;
33357;SDS011;19717;42.614;23.418;2023-02-11T01:56:31;0.68;;;0.68;;
33357;SDS011;19717;42.614;23.418;2023-02-11T01:59:18;1.58;;;1.55;;
33357;SDS011;19717;42.614;23.418;2023-02-11T02:01:45;0.70;;;0.70;;
33357;SDS011;19717;42.614;23.418;2023-02-11T02:04:14;1.10;;;1.10;;
33357;SDS011;19717;42.614;23.418;2023-02-11T02:06:43;1.13;;;1.13;;
33357;SDS011;19717;42.614;23.418;2023-02-11T02:09:18;6.18;;;1.75;;
33357;SDS011;19717;42.614;23.418;2023-02-11T02:11:45;1.38;;;1.38;;
33357;SDS011;19717;42.614;23.418;2023-02-11T02:14:11;1.38;;;1.30;;
33357;SDS011;19717;42.614;23.418;2023-02-11T02:16:37;0.60;;;0.60;;
33357;SDS011;19717;42.614;23.418;2023-02-11T02:40:05;1.60;;;0.85;;
33357;SDS011;19717;42.614;23.418;2023-02-11T02:42:34;0.95;;;0.80;;
33357;SDS011;19717;42.614;23.418;2023-02-11T02:45:00;1.25;;;1.17;;
33357;SDS011;19717;42.614;23.418;2023-02-11T02:47:26;1.45;;;1.35;;
33357;SDS011;19717;42.614;23.418;2023-02-11T02:49:52;2.85;;;1.10;;
33357;SDS011;19717;42.614;23.418;2023-02-11T02:52:24;1.23;;;1.23;;
33357;SDS011;19717;42.614;23.418;2023-02-11T03:10:55;1.08;;;1.02;;
33357;SDS011;19717;42.614;23.418;2023-02-11T03:13:23;2.45;;;1.70;;
33357;SDS011;19717;42.614;23.418;2023-02-11T03:15:51;1.10;;;1.00;;
33357;SDS011;19717;42.614;23.418;2023-02-11T03:18:19;1.42;;;1.25;;
33357;SDS011;19717;42.614;23.418;2023-02-11T03:20:48;1.77;;;1.65;;
33357;SDS011;19717;42.614;23.418;2023-02-11T03:23:49;2.65;;;2.47;;
33357;SDS011;19717;42.614;23.418;2023-02-11T03:26:09;2.05;;;1.90;;
33357;SDS011;19717;42.614;23.418;2023-02-11T03:33:34;1.05;;;1.05;;
33357;SDS011;19717;42.614;23.418;2023-02-11T03:36:03;2.28;;;1.50;;
33357;SDS011;19717;42.614;23.418;2023-02-11T03:38:32;3.00;;;2.80;;
33357;SDS011;19717;42.614;23.418;2023-02-11T03:41:00;1.10;;;1.05;;
33357;SDS011;19717;42.614;23.418;2023-02-11T03:43:28;1.58;;;1.33;;
33357;SDS011;19717;42.614;23.418;2023-02-11T03:45:55;1.00;;;0.98;;
33357;SDS011;19717;42.614;23.418;2023-02-11T03:48:23;2.92;;;2.58;;
33357;SDS011;19717;42.614;23.418;2023-02-11T03:50:50;1.80;;;1.23;;
33357;SDS011;19717;42.614;23.418;2023-02-11T03:53:17;1.90;;;1.80;;
33357;SDS011;19717;42.614;23.418;2023-02-11T03:55:45;3.28;;;1.77;;
33357;SDS011;19717;42.614;23.418;2023-02-11T03:58:12;2.80;;;1.50;;
33357;SDS011;19717;42.614;23.418;2023-02-11T04:00:39;2.08;;;0.85;;
33357;SDS011;19717;42.614;23.418;2023-02-11T04:03:06;0.88;;;0.88;;
33357;SDS011;19717;42.614;23.418;2023-02-11T04:05:33;2.38;;;1.45;;
33357;SDS011;19717;42.614;23.418;2023-02-11T04:07:59;0.70;;;0.70;;
33357;SDS011;19717;42.614;23.418;2023-02-11T04:10:25;0.95;;;0.93;;
33357;SDS011;19717;42.614;23.418;2023-02-11T04:12:51;2.38;;;1.55;;
33357;SDS011;19717;42.614;23.418;2023-02-11T04:15:17;2.45;;;2.20;;
33357;SDS011;19717;42.614;23.418;2023-02-11T04:17:43;1.92;;;1.80;;
33357;SDS011;19717;42.614;23.418;2023-02-11T04:20:10;1.73;;;1.65;;
33357;SDS011;19717;42.614;23.418;2023-02-11T04:22:36;4.25;;;2.63;;
33357;SDS011;19717;42.614;23.418;2023-02-11T04:25:03;1.42;;;1.40;;
33357;SDS011;19717;42.614;23.418;2023-02-11T04:27:29;2.58;;;1.80;;
33357;SDS011;19717;42.614;23.418;2023-02-11T04:29:55;0.88;;;0.88;;
33357;SDS011;19717;42.614;23.418;2023-02-11T04:32:21;7.18;;;1.23;;
33357;SDS011;19717;42.614;23.418;2023-02-11T04:34:47;6.38;;;3.03;;
33357;SDS011;19717;42.614;23.418;2023-02-11T04:37:13;0.70;;;0.70;;
33357;SDS011;19717;42.614;23.418;2023-02-11T04:39:40;1.95;;;1.27;;
33357;SDS011;19717;42.614;23.418;2023-02-11T04:42:06;4.25;;;1.95;;
33357;SDS011;19717;42.614;23.418;2023-02-11T04:44:32;1.58;;;1.48;;
33357;SDS011;19717;42.614;23.418;2023-02-11T04:46:58;2.17;;;2.00;;
33357;SDS011;19717;42.614;23.418;2023-02-11T04:49:24;0.60;;;0.60;;
33357;SDS011;19717;42.614;23.418;2023-02-11T04:51:50;1.02;;;1.02;;
33357;SDS011;19717;42.614;23.418;2023-02-11T04:54:16;0.82;;;0.82;;
33357;SDS011;19717;42.614;23.418;2023-02-11T04:56:43;0.85;;;0.85;;
33357;SDS011;19717;42.614;23.418;2023-02-11T04:59:09;0.50;;;0.50;;
33357;SDS011;19717;42.614;23.418;2023-02-11T05:01:37;1.27;;;1.27;;
33357;SDS011;19717;42.614;23.418;2023-02-11T05:04:03;2.15;;;1.02;;
33357;SDS011;19717;42.614;23.418;2023-02-11T05:06:29;2.50;;;2.30;;
33357;SDS011;19717;42.614;23.418;2023-02-11T05:08:55;3.05;;;2.85;;
33357;SDS011;19717;42.614;23.418;2023-02-11T05:11:22;2.30;;;1.33;;
33357;SDS011;19717;42.614;23.418;2023-02-11T05:13:48;1.23;;;1.13;;
33357;SDS011;19717;42.614;23.418;2023-02-11T05:16:14;1.90;;;1.77;;
33357;SDS011;19717;42.614;23.418;2023-02-11T05:18:41;1.85;;;1.75;;
33357;SDS011;19717;42.614;23.418;2023-02-11T05:21:08;2.45;;;1.38;;
33357;SDS011;19717;42.614;23.418;2023-02-11T05:23:35;1.75;;;1.60;;
33357;SDS011;19717;42.614;23.418;2023-02-11T05:26:02;14.18;;;3.53;;
33357;SDS011;19717;42.614;23.418;2023-02-11T05:28:28;1.63;;;1.58;;
33357;SDS011;19717;42.614;23.418;2023-02-11T05:30:54;4.13;;;1.05;;
33357;SDS011;19717;42.614;23.418;2023-02-11T05:33:20;4.20;;;2.80;;
33357;SDS011;19717;42.614;23.418;2023-02-11T05:35:46;4.22;;;1.27;;
33357;SDS011;19717;42.614;23.418;2023-02-11T05:38:12;4.45;;;2.95;;
33357;SDS011;19717;42.614;23.418;2023-02-11T05:40:39;3.40;;;2.60;;
33357;SDS011;19717;42.614;23.418;2023-02-11T05:43:05;7.15;;;3.28;;
33357;SDS011;19717;42.614;23.418;2023-02-11T05:45:31;0.98;;;0.98;;
33357;SDS011;19717;42.614;23.418;2023-02-11T05:47:57;0.88;;;0.88;;
33357;SDS011;19717;42.614;23.418;2023-02-11T05:50:24;1.65;;;1.42;;
33357;SDS011;19717;42.614;23.418;2023-02-11T05:52:50;1.33;;;1.30;;
33357;SDS011;19717;42.614;23.418;2023-02-11T05:55:16;2.10;;;2.00;;
33357;SDS011;19717;42.614;23.418;2023-02-11T05:57:42;1.52;;;1.48;;
33357;SDS011;19717;42.614;23.418;2023-02-11T06:00:08;4.47;;;3.20;;
33357;SDS011;19717;42.614;23.418;2023-02-11T06:02:35;1.25;;;1.15;;
33357;SDS011;19717;42.614;23.418;2023-02-11T06:05:01;3.47;;;3.05;;
33357;SDS011;19717;42.614;23.418;2023-02-11T06:07:27;5.07;;;4.28;;
33357;SDS011;19717;42.614;23.418;2023-02-11T06:09:53;5.68;;;2.50;;
33357;SDS011;19717;42.614;23.418;2023-02-11T06:12:19;6.25;;;3.28;;
33357;SDS011;19717;42.614;23.418;2023-02-11T06:14:45;2.13;;;2.00;;
33357;SDS011;19717;42.614;23.418;2023-02-11T06:17:11;3.60;;;3.30;;
33357;SDS011;19717;42.614;23.418;2023-02-11T06:19:37;5.13;;;2.05;;
33357;SDS011;19717;42.614;23.418;2023-02-11T06:22:03;2.83;;;2.33;;
33357;SDS011;19717;42.614;23.418;2023-02-11T06:24:29;1.98;;;1.70;;
33357;SDS011;19717;42.614;23.418;2023-02-11T06:26:55;1.20;;;1.20;;
33357;SDS011;19717;42.614;23.418;2023-02-11T06:29:21;1.17;;;1.17;;
33357;SDS011;19717;42.614;23.418;2023-02-11T06:31:47;1.30;;;1.25;;
33357;SDS011;19717;42.614;23.418;2023-02-11T06:34:13;0.63;;;0.63;;
33357;SDS011;19717;42.614;23.418;2023-02-11T06:36:39;1.08;;;1.08;;
33357;SDS011;19717;42.614;23.418;2023-02-11T06:39:05;1.92;;;1.83;;
33357;SDS011;19717;42.614;23.418;2023-02-11T06:41:32;1.60;;;1.50;;
33357;SDS011;19717;42.614;23.418;2023-02-11T06:43:58;2.60;;;2.22;;
33357;SDS011;19717;42.614;23.418;2023-02-11T06:46:24;2.42;;;2.25;;
33357;SDS011;19717;42.614;23.418;2023-02-11T06:48:50;2.83;;;2.63;;
33357;SDS011;19717;42.614;23.418;2023-02-11T06:51:16;2.50;;;2.40;;
33357;SDS011;19717;42.614;23.418;2023-02-11T06:53:43;3.55;;;3.22;;
33357;SDS011;19717;42.614;23.418;2023-02-11T06:56:20;6.00;;;4.45;;
33357;SDS011;19717;42.614;23.418;2023-02-11T06:58:47;11.30;;;5.63;;
33357;SDS011;19717;42.614;23.418;2023-02-11T07:01:14;5.68;;;3.17;;
33357;SDS011;19717;42.614;23.418;2023-02-11T07:03:41;8.90;;;5.22;;
33357;SDS011;19717;42.614;23.418;2023-02-11T07:06:09;9.25;;;7.13;;
33357;SDS011;19717;42.614;23.418;2023-02-11T07:08:36;29.27;;;10.65;;
33357;SDS011;19717;42.614;23.418;2023-02-11T07:11:17;12.38;;;7.18;;
33357;SDS011;19717;42.614;23.418;2023-02-11T07:13:43;8.07;;;6.60;;
33357;SDS011;19717;42.614;23.418;2023-02-11T07:16:11;13.43;;;6.70;;
33357;SDS011;19717;42.614;23.418;2023-02-11T07:18:37;13.68;;;7.53;;
33357;SDS011;19717;42.614;23.418;2023-02-11T07:21:07;7.22;;;6.40;;
33357;SDS011;19717;42.614;23.418;2023-02-11T07:23:33;7.30;;;5.80;;
33357;SDS011;19717;42.614;23.418;2023-02-11T07:26:06;7.55;;;4.13;;
33357;SDS011;19717;42.614;23.418;2023-02-11T07:28:32;9.27;;;5.70;;
33357;SDS011;19717;42.614;23.418;2023-02-11T07:31:04;13.90;;;7.07;;
33357;SDS011;19717;42.614;23.418;2023-02-11T07:33:30;9.60;;;6.93;;
33357;SDS011;19717;42.614;23.418;2023-02-11T07:35:58;11.63;;;6.63;;
33357;SDS011;19717;42.614;23.418;2023-02-11T07:38:32;2.95;;;2.75;;
33357;SDS011;19717;42.614;23.418;2023-02-11T07:40:59;12.43;;;3.30;;
33357;SDS011;19717;42.614;23.418;2023-02-11T07:43:25;7.50;;;4.50;;
33357;SDS011;19717;42.614;23.418;2023-02-11T07:45:51;7.35;;;4.85;;
33357;SDS011;19717;42.614;23.418;2023-02-11T07:48:17;8.65;;;5.15;;
33357;SDS011;19717;42.614;23.418;2023-02-11T07:50:44;4.03;;;2.97;;
33357;SDS011;19717;42.614;23.418;2023-02-11T07:53:10;7.78;;;3.22;;
33357;SDS011;19717;42.614;23.418;2023-02-11T07:55:36;2.97;;;2.28;;
33357;SDS011;19717;42.614;23.418;2023-02-11T07:58:02;4.25;;;2.95;;
33357;SDS011;19717;42.614;23.418;2023-02-11T08:00:28;1.05;;;1.05;;
33357;SDS011;19717;42.614;23.418;2023-02-11T08:02:55;2.88;;;1.73;;
33357;SDS011;19717;42.614;23.418;2023-02-11T08:05:21;5.18;;;3.15;;
33357;SDS011;19717;42.614;23.418;2023-02-11T08:07:51;5.03;;;3.05;;
33357;SDS011;19717;42.614;23.418;2023-02-11T08:10:17;0.95;;;0.95;;
33357;SDS011;19717;42.614;23.418;2023-02-11T08:12:43;6.90;;;1.92;;
33357;SDS011;19717;42.614;23.418;2023-02-11T08:15:10;2.95;;;2.75;;
33357;SDS011;19717;42.614;23.418;2023-02-11T08:17:36;3.90;;;2.17;;
33357;SDS011;19717;42.614;23.418;2023-02-11T08:20:03;1.42;;;1.40;;
33357;SDS011;19717;42.614;23.418;2023-02-11T08:22:32;2.08;;;1.80;;
33357;SDS011;19717;42.614;23.418;2023-02-11T08:24:59;4.50;;;3.42;;
33357;SDS011;19717;42.614;23.418;2023-02-11T08:27:25;3.88;;;2.40;;
33357;SDS011;19717;42.614;23.418;2023-02-11T08:29:52;3.15;;;2.22;;
33357;SDS011;19717;42.614;23.418;2023-02-11T08:32:18;6.60;;;2.38;;
33357;SDS011;19717;42.614;23.418;2023-02-11T08:34:44;6.97;;;1.90;;
33357;SDS011;19717;42.614;23.418;2023-02-11T08:37:10;7.30;;;2.05;;
33357;SDS011;19717;42.614;23.418;2023-02-11T08:39:37;3.55;;;1.55;;
33357;SDS011;19717;42.614;23.418;2023-02-11T08:42:03;8.57;;;2.05;;
33357;SDS011;19717;42.614;23.418;2023-02-11T08:44:29;2.22;;;2.13;;
33357;SDS011;19717;42.614;23.418;2023-02-11T08:46:55;2.22;;;1.95;;
33357;SDS011;19717;42.614;23.418;2023-02-11T08:49:21;2.00;;;1.90;;
33357;SDS011;19717;42.614;23.418;2023-02-11T08:51:49;2.00;;;1.90;;
33357;SDS011;19717;42.614;23.418;2023-02-11T08:54:15;3.47;;;3.17;;
33357;SDS011;19717;42.614;23.418;2023-02-11T08:56:41;5.47;;;3.47;;
33357;SDS011;19717;42.614;23.418;2023-02-11T08:59:07;1.73;;;1.63;;
33357;SDS011;19717;42.614;23.418;2023-02-11T09:01:35;10.73;;;2.92;;
33357;SDS011;19717;42.614;23.418;2023-02-11T09:04:01;1.45;;;1.35;;
33357;SDS011;19717;42.614;23.418;2023-02-11T09:06:27;3.25;;;1.98;;
33357;SDS011;19717;42.614;23.418;2023-02-11T09:08:54;3.38;;;3.08;;
33357;SDS011;19717;42.614;23.418;2023-02-11T09:11:23;8.25;;;2.72;;
33357;SDS011;19717;42.614;23.418;2023-02-11T09:13:50;4.78;;;2.45;;
33357;SDS011;19717;42.614;23.418;2023-02-11T09:16:20;6.85;;;3.08;;
33357;SDS011;19717;42.614;23.418;2023-02-11T09:18:47;3.80;;;2.00;;
33357;SDS011;19717;42.614;23.418;2023-02-11T09:21:14;5.20;;;3.30;;
33357;SDS011;19717;42.614;23.418;2023-02-11T09:23:40;5.85;;;3.15;;
33357;SDS011;19717;42.614;23.418;2023-02-11T09:26:10;3.78;;;2.53;;
33357;SDS011;19717;42.614;23.418;2023-02-11T09:28:37;5.65;;;1.90;;
33357;SDS011;19717;42.614;23.418;2023-02-11T09:31:04;1.85;;;1.75;;
33357;SDS011;19717;42.614;23.418;2023-02-11T09:33:30;2.65;;;2.13;;
33357;SDS011;19717;42.614;23.418;2023-02-11T09:35:59;2.28;;;1.88;;
33357;SDS011;19717;42.614;23.418;2023-02-11T09:38:29;2.33;;;1.73;;
33357;SDS011;19717;42.614;23.418;2023-02-11T09:40:55;8.27;;;4.35;;
33357;SDS011;19717;42.614;23.418;2023-02-11T09:43:32;4.10;;;1.92;;
33357;SDS011;19717;42.614;23.418;2023-02-11T09:46:01;3.72;;;1.95;;
33357;SDS011;19717;42.614;23.418;2023-02-11T09:48:27;4.50;;;4.07;;
33357;SDS011;19717;42.614;23.418;2023-02-11T09:50:56;3.28;;;2.40;;
33357;SDS011;19717;42.614;23.418;2023-02-11T09:53:27;3.58;;;3.13;;
33357;SDS011;19717;42.614;23.418;2023-02-11T09:55:55;3.10;;;2.20;;
33357;SDS011;19717;42.614;23.418;2023-02-11T09:58:25;2.33;;;2.20;;
33357;SDS011;19717;42.614;23.418;2023-02-11T10:11:11;5.65;;;2.40;;
33357;SDS011;19717;42.614;23.418;2023-02-11T10:23:41;2.63;;;2.42;;
33357;SDS011;19717;42.614;23.418;2023-02-11T10:26:14;7.82;;;2.85;;
33357;SDS011;19717;42.614;23.418;2023-02-11T10:28:41;8.63;;;3.93;;
33357;SDS011;19717;42.614;23.418;2023-02-11T10:31:10;11.30;;;5.40;;
33357;SDS011;19717;42.614;23.418;2023-02-11T10:36:28;5.50;;;3.33;;
33357;SDS011;19717;42.614;23.418;2023-02-11T10:38:54;2.63;;;2.28;;
33357;SDS011;19717;42.614;23.418;2023-02-11T10:41:28;10.23;;;2.80;;
33357;SDS011;19717;42.614;23.418;2023-02-11T10:43:57;9.10;;;3.42;;
33357;SDS011;19717;42.614;23.418;2023-02-11T10:46:24;9.50;;;3.13;;
33357;SDS011;19717;42.614;23.418;2023-02-11T10:48:52;2.65;;;2.38;;
33357;SDS011;19717;42.614;23.418;2023-02-11T10:51:22;3.20;;;2.92;;
33357;SDS011;19717;42.614;23.418;2023-02-11T10:53:50;3.58;;;3.25;;
33357;SDS011;19717;42.614;23.418;2023-02-11T10:56:36;4.35;;;2.13;;
33357;SDS011;19717;42.614;23.418;2023-02-11T11:01:45;4.00;;;2.88;;
33357;SDS011;19717;42.614;23.418;2023-02-11T11:06:52;3.38;;;2.00;;
33357;SDS011;19717;42.614;23.418;2023-02-11T11:09:29;3.42;;;2.58;;
33357;SDS011;19717;42.614;23.418;2023-02-11T11:11:56;7.18;;;3.03;;
33357;SDS011;19717;42.614;23.418;2023-02-11T11:14:22;3.47;;;2.53;;
33357;SDS011;19717;42.614;23.418;2023-02-11T11:16:53;4.55;;;2.30;;
33357;SDS011;19717;42.614;23.418;2023-02-11T11:19:23;2.83;;;2.42;;
33357;SDS011;19717;42.614;23.418;2023-02-11T11:21:53;7.13;;;2.95;;
33357;SDS011;19717;42.614;23.418;2023-02-11T11:26:55;6.72;;;3.42;;
33357;SDS011;19717;42.614;23.418;2023-02-11T11:29:23;6.45;;;2.65;;
33357;SDS011;19717;42.614;23.418;2023-02-11T11:32:12;3.42;;;1.98;;
33357;SDS011;19717;42.614;23.418;2023-02-11T11:34:41;3.38;;;2.30;;
33357;SDS011;19717;42.614;23.418;2023-02-11T11:37:40;6.75;;;3.60;;
33357;SDS011;19717;42.614;23.418;2023-02-11T11:42:30;3.20;;;1.80;;
33357;SDS011;19717;42.614;23.418;2023-02-11T11:45:00;4.88;;;3.30;;
33357;SDS011;19717;42.614;23.418;2023-02-11T11:50:29;4.07;;;2.58;;
33357;SDS011;19717;42.614;23.418;2023-02-11T11:55:32;5.07;;;2.95;;
33357;SDS011;19717;42.614;23.418;2023-02-11T11:57:59;7.20;;;2.55;;
33357;SDS011;19717;42.614;23.418;2023-02-11T12:08:58;3.05;;;2.58;;
33357;SDS011;19717;42.614;23.418;2023-02-11T12:11:32;5.70;;;3.92;;
33357;SDS011;19717;42.614;23.418;2023-02-11T12:14:23;7.10;;;3.78;;
33357;SDS011;19717;42.614;23.418;2023-02-11T12:27:16;5.15;;;2.00;;
33357;SDS011;19717;42.614;23.418;2023-02-11T12:29:49;6.40;;;3.28;;
33357;SDS011;19717;42.614;23.418;2023-02-11T12:42:50;4.57;;;1.83;;
33357;SDS011;19717;42.614;23.418;2023-02-11T12:53:33;2.25;;;1.98;;
33357;SDS011;19717;42.614;23.418;2023-02-11T12:56:10;4.20;;;1.92;;
33357;SDS011;19717;42.614;23.418;2023-02-11T12:58:38;4.15;;;2.67;;
33357;SDS011;19717;42.614;23.418;2023-02-11T13:01:07;4.70;;;2.50;;
33357;SDS011;19717;42.614;23.418;2023-02-11T13:03:42;3.80;;;2.15;;
33357;SDS011;19717;42.614;23.418;2023-02-11T13:06:10;5.32;;;3.20;;
33357;SDS011;19717;42.614;23.418;2023-02-11T13:08:38;3.47;;;2.55;;
33357;SDS011;19717;42.614;23.418;2023-02-11T13:11:11;3.17;;;2.25;;
33357;SDS011;19717;42.614;23.418;2023-02-11T13:13:51;6.68;;;3.00;;
33357;SDS011;19717;42.614;23.418;2023-02-11T13:29:17;4.38;;;2.55;;
33357;SDS011;19717;42.614;23.418;2023-02-11T13:31:54;5.93;;;2.58;;
33357;SDS011;19717;42.614;23.418;2023-02-11T13:34:25;5.25;;;1.73;;
33357;SDS011;19717;42.614;23.418;2023-02-11T13:36:54;6.07;;;3.20;;
33357;SDS011;19717;42.614;23.418;2023-02-11T13:39:22;2.50;;;1.88;;
33357;SDS011;19717;42.614;23.418;2023-02-11T13:41:48;6.03;;;2.72;;
33357;SDS011;19717;42.614;23.418;2023-02-11T13:44:20;5.03;;;2.63;;
33357;SDS011;19717;42.614;23.418;2023-02-11T13:51:50;5.03;;;2.80;;
33357;SDS011;19717;42.614;23.418;2023-02-11T13:54:21;4.15;;;2.28;;
33357;SDS011;19717;42.614;23.418;2023-02-11T13:57:14;2.63;;;1.87;;
33357;SDS011;19717;42.614;23.418;2023-02-11T14:10:55;1.83;;;1.67;;
33357;SDS011;19717;42.614;23.418;2023-02-11T14:13:31;4.30;;;2.78;;
33357;SDS011;19717;42.614;23.418;2023-02-11T14:34:07;21.15;;;4.78;;
33357;SDS011;19717;42.614;23.418;2023-02-11T14:39:22;19.42;;;7.40;;
33357;SDS011;19717;42.614;23.418;2023-02-11T14:41:50;5.88;;;4.18;;
33357;SDS011;19717;42.614;23.418;2023-02-11T14:44:24;9.07;;;4.18;;
33357;SDS011;19717;42.614;23.418;2023-02-11T14:46:51;3.22;;;2.53;;
33357;SDS011;19717;42.614;23.418;2023-02-11T14:49:39;10.65;;;5.10;;
33357;SDS011;19717;42.614;23.418;2023-02-11T14:52:06;6.20;;;4.18;;
33357;SDS011;19717;42.614;23.418;2023-02-11T14:54:36;10.45;;;5.22;;
33357;SDS011;19717;42.614;23.418;2023-02-11T14:57:13;8.18;;;3.17;;
33357;SDS011;19717;42.614;23.418;2023-02-11T14:59:39;9.05;;;3.97;;
33357;SDS011;19717;42.614;23.418;2023-02-11T15:02:21;6.97;;;3.83;;
33357;SDS011;19717;42.614;23.418;2023-02-11T15:04:47;5.25;;;2.75;;
33357;SDS011;19717;42.614;23.418;2023-02-11T15:07:14;10.38;;;5.38;;
33357;SDS011;19717;42.614;23.418;2023-02-11T15:09:41;5.38;;;3.47;;
33357;SDS011;19717;42.614;23.418;2023-02-11T15:12:14;10.45;;;6.22;;
33357;SDS011;19717;42.614;23.418;2023-02-11T15:14:44;21.50;;;8.13;;
33357;SDS011;19717;42.614;23.418;2023-02-11T15:17:11;7.05;;;4.13;;
33357;SDS011;19717;42.614;23.418;2023-02-11T15:19:40;10.15;;;3.53;;
33357;SDS011;19717;42.614;23.418;2023-02-11T15:22:31;4.57;;;2.80;;
33357;SDS011;19717;42.614;23.418;2023-02-11T15:27:23;4.38;;;2.97;;
33357;SDS011;19717;42.614;23.418;2023-02-11T15:29:50;4.75;;;2.25;;
33357;SDS011;19717;42.614;23.418;2023-02-11T15:34:43;4.55;;;2.95;;
33357;SDS011;19717;42.614;23.418;2023-02-11T15:37:13;12.65;;;4.78;;
33357;SDS011;19717;42.614;23.418;2023-02-11T15:39:40;10.85;;;3.00;;
33357;SDS011;19717;42.614;23.418;2023-02-11T15:44:41;4.53;;;2.13;;
33357;SDS011;19717;42.614;23.418;2023-02-11T15:47:11;12.90;;;4.85;;
33357;SDS011;19717;42.614;23.418;2023-02-11T15:49:38;5.93;;;2.53;;
33357;SDS011;19717;42.614;23.418;2023-02-11T15:52:08;6.97;;;2.85;;
33357;SDS011;19717;42.614;23.418;2023-02-11T15:54:34;3.55;;;2.75;;
33357;SDS011;19717;42.614;23.418;2023-02-11T15:57:02;10.57;;;4.53;;
33357;SDS011;19717;42.614;23.418;2023-02-11T15:59:38;1.80;;;1.60;;
33357;SDS011;19717;42.614;23.418;2023-02-11T16:02:06;1.55;;;1.45;;
33357;SDS011;19717;42.614;23.418;2023-02-11T16:04:33;6.10;;;2.72;;
33357;SDS011;19717;42.614;23.418;2023-02-11T16:07:00;3.20;;;2.88;;
33357;SDS011;19717;42.614;23.418;2023-02-11T16:11:57;7.80;;;4.25;;
33357;SDS011;19717;42.614;23.418;2023-02-11T16:19:27;9.63;;;2.85;;
33357;SDS011;19717;42.614;23.418;2023-02-11T16:21:54;2.30;;;2.10;;
33357;SDS011;19717;42.614;23.418;2023-02-11T16:24:31;5.18;;;2.00;;
33357;SDS011;19717;42.614;23.418;2023-02-11T16:27:01;8.02;;;3.45;;
33357;SDS011;19717;42.614;23.418;2023-02-11T16:29:28;1.80;;;1.70;;
33357;SDS011;19717;42.614;23.418;2023-02-11T16:32:08;12.02;;;4.50;;
33357;SDS011;19717;42.614;23.418;2023-02-11T16:34:35;4.55;;;2.33;;
33357;SDS011;19717;42.614;23.418;2023-02-11T16:37:04;1.83;;;1.73;;
33357;SDS011;19717;42.614;23.418;2023-02-11T16:39:30;3.70;;;3.10;;
33357;SDS011;19717;42.614;23.418;2023-02-11T16:41:58;16.08;;;4.03;;
33357;SDS011;19717;42.614;23.418;2023-02-11T16:44:24;2.30;;;2.13;;
33357;SDS011;19717;42.614;23.418;2023-02-11T16:46:51;4.18;;;1.83;;
33357;SDS011;19717;42.614;23.418;2023-02-11T16:49:21;3.20;;;2.92;;
33357;SDS011;19717;42.614;23.418;2023-02-11T16:51:49;2.42;;;1.55;;
33357;SDS011;19717;42.614;23.418;2023-02-11T16:54:16;5.82;;;3.85;;
33357;SDS011;19717;42.614;23.418;2023-02-11T16:56:43;4.38;;;3.17;;
33357;SDS011;19717;42.614;23.418;2023-02-11T16:59:10;5.65;;;4.13;;
33357;SDS011;19717;42.614;23.418;2023-02-11T17:01:37;14.07;;;7.60;;
33357;SDS011;19717;42.614;23.418;2023-02-11T17:04:03;21.30;;;10.13;;
33357;SDS011;19717;42.614;23.418;2023-02-11T17:06:30;6.22;;;3.72;;
33357;SDS011;19717;42.614;23.418;2023-02-11T17:08:56;13.13;;;4.07;;
33357;SDS011;19717;42.614;23.418;2023-02-11T17:11:22;12.25;;;4.07;;
33357;SDS011;19717;42.614;23.418;2023-02-11T17:13:48;1.83;;;1.58;;
33357;SDS011;19717;42.614;23.418;2023-02-11T17:16:18;11.32;;;7.47;;
33357;SDS011;19717;42.614;23.418;2023-02-11T17:18:44;4.90;;;4.38;;
33357;SDS011;19717;42.614;23.418;2023-02-11T17:21:11;17.60;;;13.00;;
33357;SDS011;19717;42.614;23.418;2023-02-11T17:23:37;7.93;;;5.68;;
33357;SDS011;19717;42.614;23.418;2023-02-11T17:26:03;15.27;;;4.82;;
33357;SDS011;19717;42.614;23.418;2023-02-11T17:28:29;6.55;;;3.13;;
33357;SDS011;19717;42.614;23.418;2023-02-11T17:30:56;6.70;;;3.97;;
33357;SDS011;19717;42.614;23.418;2023-02-11T17:33:22;7.80;;;4.28;;
33357;SDS011;19717;42.614;23.418;2023-02-11T17:35:49;12.95;;;7.45;;
33357;SDS011;19717;42.614;23.418;2023-02-11T17:38:15;9.98;;;5.53;;
33357;SDS011;19717;42.614;23.418;2023-02-11T17:40:41;8.05;;;5.20;;
33357;SDS011;19717;42.614;23.418;2023-02-11T17:43:07;5.75;;;4.47;;
33357;SDS011;19717;42.614;23.418;2023-02-11T17:45:33;9.45;;;3.75;;